createdAt,value
2023-04-20T00:01:32.969Z,12.16
2023-04-20T00:04:01.022Z,12.63
2023-04-20T00:06:32.380Z,13.12
2023-04-20T00:09:00.852Z,12.40
2023-04-20T00:11:28.492Z,12.96
2023-04-20T00:13:56.055Z,13.39
2023-04-20T00:16:23.444Z,12.69
2023-04-20T00:18:51.615Z,12.75
2023-04-20T00:21:23.940Z,13.09
2023-04-20T00:23:51.867Z,12.84
2023-04-20T00:26:19.264Z,13.32
2023-04-20T00:28:46.940Z,12.99
2023-04-20T00:31:14.619Z,13.39
2023-04-20T00:33:42.062Z,13.79
2023-04-20T00:36:09.572Z,13.71
2023-04-20T00:38:37.209Z,13.69
2023-04-20T00:41:04.604Z,13.45
2023-04-20T00:43:32.021Z,13.11
2023-04-20T00:45:59.698Z,12.45
2023-04-20T00:48:27.594Z,12.45
2023-04-20T00:50:54.964Z,12.92
2023-04-20T00:53:22.592Z,13.07
2023-04-20T00:55:50.809Z,13.52
2023-04-20T00:58:18.244Z,13.53
2023-04-20T01:00:45.881Z,13.43
2023-04-20T01:03:13.747Z,13.56
2023-04-20T01:05:41.271Z,13.33
2023-04-20T01:08:08.886Z,13.38
2023-04-20T01:10:36.274Z,13.15
2023-04-20T01:13:07.080Z,13.02
2023-04-20T01:15:35.404Z,13.50
2023-04-20T01:18:03.614Z,12.94
2023-04-20T01:20:31.546Z,13.35
2023-04-20T01:23:00.491Z,12.88
2023-04-20T01:25:27.967Z,12.73
2023-04-20T01:27:55.338Z,12.27
2023-04-20T01:30:22.996Z,12.11
2023-04-20T01:32:50.504Z,11.96
2023-04-20T01:35:17.855Z,12.61
2023-04-20T01:37:45.831Z,11.86
2023-04-20T01:40:13.572Z,12.04
2023-04-20T01:42:40.950Z,12.42
2023-04-20T01:45:08.841Z,12.76
2023-04-20T01:47:36.713Z,12.51
2023-04-20T01:50:04.207Z,12.43
2023-04-20T01:52:31.946Z,12.47
2023-04-20T01:54:59.359Z,12.56
2023-04-20T01:57:26.732Z,12.62
2023-04-20T01:59:54.592Z,12.68
2023-04-20T02:02:22.016Z,12.13
2023-04-20T02:04:49.656Z,12.59
2023-04-20T02:07:17.103Z,11.81
2023-04-20T02:09:44.535Z,12.32
2023-04-20T02:12:12.193Z,12.14
2023-04-20T02:14:40.146Z,11.89
2023-04-20T02:17:10.717Z,11.87
2023-04-20T02:19:38.309Z,11.90
2023-04-20T02:22:05.770Z,11.94
2023-04-20T02:24:33.400Z,11.61
2023-04-20T02:27:01.460Z,11.71
2023-04-20T02:29:28.842Z,12.05
2023-04-20T02:31:56.778Z,11.95
2023-04-20T02:34:24.455Z,12.15
2023-04-20T02:36:51.839Z,11.67
2023-04-20T02:39:19.844Z,11.98
2023-04-20T02:41:47.426Z,11.48
2023-04-20T02:44:14.813Z,11.38
2023-04-20T02:46:42.472Z,11.65
2023-04-20T02:49:10.033Z,11.74
2023-04-20T02:51:37.994Z,11.71
2023-04-20T02:54:05.853Z,11.45
2023-04-20T02:56:33.244Z,12.13
2023-04-20T02:59:01.277Z,11.97
2023-04-20T03:01:29.150Z,12.19
2023-04-20T03:03:58.601Z,12.38
2023-04-20T03:06:26.656Z,12.26
2023-04-20T03:08:54.504Z,12.41
2023-04-20T03:11:23.447Z,11.82
2023-04-20T03:13:50.996Z,12.48
2023-04-20T03:16:19.174Z,12.51
2023-04-20T03:18:46.722Z,12.52
2023-04-20T03:21:14.937Z,12.66
2023-04-20T03:23:43.521Z,12.27
2023-04-20T03:26:11.289Z,11.97
2023-04-20T03:28:39.664Z,12.10
2023-04-20T03:31:07.675Z,12.26
2023-04-20T03:33:35.084Z,12.26
2023-04-20T03:36:04.472Z,12.17
2023-04-20T03:38:32.116Z,12.16
2023-04-20T03:40:59.489Z,12.16
2023-04-20T03:43:28.086Z,11.93
2023-04-20T03:45:55.773Z,12.23
2023-04-20T03:48:25.236Z,11.88
2023-04-20T03:50:52.799Z,11.88
2023-04-20T03:53:20.469Z,11.75
2023-04-20T03:55:47.880Z,11.53
2023-04-20T03:58:15.820Z,11.16
2023-04-20T04:00:43.977Z,11.51
2023-04-20T04:03:12.166Z,11.39
2023-04-20T04:05:40.755Z,11.28
2023-04-20T04:08:08.209Z,11.18
2023-04-20T04:10:36.217Z,11.67
2023-04-20T04:13:04.106Z,11.64
2023-04-20T04:15:32.046Z,11.83
2023-04-20T04:18:00.102Z,11.73
2023-04-20T04:20:27.729Z,11.46
2023-04-20T04:22:55.368Z,11.91
2023-04-20T04:25:23.922Z,11.97
2023-04-20T04:27:51.350Z,12.08
2023-04-20T04:30:20.002Z,11.78
2023-04-20T04:32:49.067Z,11.77
2023-04-20T04:35:16.821Z,12.12
2023-04-20T04:37:44.205Z,12.23
2023-04-20T04:40:12.013Z,12.22
2023-04-20T04:42:39.630Z,11.41
2023-04-20T04:45:07.645Z,11.14
2023-04-20T04:47:36.089Z,10.74
2023-04-20T04:50:04.501Z,11.09
2023-04-20T04:52:35.370Z,11.46
2023-04-20T04:55:03.865Z,11.28
2023-04-20T04:57:31.258Z,12.04
2023-04-20T04:59:58.655Z,12.30
2023-04-20T05:02:26.599Z,12.85
2023-04-20T05:04:54.106Z,12.63
2023-04-20T05:07:21.561Z,12.22
2023-04-20T05:09:49.169Z,12.74
2023-04-20T05:12:16.579Z,12.52
2023-04-20T05:14:43.961Z,13.03
2023-04-20T05:17:11.590Z,12.77
2023-04-20T05:19:38.941Z,13.10
2023-04-20T05:22:06.293Z,13.40
2023-04-20T05:24:33.901Z,13.78
2023-04-20T05:27:01.769Z,13.44
2023-04-20T05:29:29.163Z,13.50
2023-04-20T05:31:56.873Z,13.67
2023-04-20T05:34:24.258Z,14.04
2023-04-20T05:36:52.132Z,14.60
2023-04-20T05:39:19.986Z,14.55
2023-04-20T05:41:47.802Z,14.49
2023-04-20T05:44:15.165Z,14.75
2023-04-20T05:46:42.787Z,14.97
2023-04-20T05:49:10.408Z,14.89
2023-04-20T05:51:37.758Z,14.51
2023-04-20T05:54:05.618Z,15.05
2023-04-20T05:56:32.967Z,15.32
2023-04-20T05:59:00.490Z,15.47
2023-04-20T06:01:28.095Z,15.57
2023-04-20T06:03:56.301Z,16.25
2023-04-20T06:06:23.790Z,15.29
2023-04-20T06:08:52.206Z,15.42
2023-04-20T06:11:19.841Z,15.84
2023-04-20T06:13:47.222Z,16.46
2023-04-20T06:16:14.620Z,16.66
2023-04-20T06:18:42.276Z,16.84
2023-04-20T06:21:10.522Z,16.93
2023-04-20T06:23:38.335Z,17.08
2023-04-20T06:26:08.843Z,16.52
2023-04-20T06:28:36.960Z,16.97
2023-04-20T06:31:04.703Z,17.37
2023-04-20T06:33:32.487Z,16.40
2023-04-20T06:35:59.908Z,16.88
2023-04-20T06:38:27.329Z,16.39
2023-04-20T06:40:57.435Z,16.83
2023-04-20T06:43:24.793Z,17.27
2023-04-20T06:45:52.174Z,17.14
2023-04-20T06:48:31.688Z,16.66
2023-04-20T06:51:01.348Z,16.69
2023-04-20T06:53:28.970Z,17.37
2023-04-20T06:55:56.851Z,17.22
2023-04-20T06:58:24.297Z,17.43
2023-04-20T07:00:51.945Z,17.23
2023-04-20T07:03:19.693Z,17.12
2023-04-20T07:05:47.238Z,16.49
2023-04-20T07:08:18.036Z,17.58
2023-04-20T07:10:45.372Z,16.52
2023-04-20T07:13:12.732Z,17.13
2023-04-20T07:15:40.380Z,17.82
2023-04-20T07:18:07.887Z,17.39
2023-04-20T07:20:35.295Z,17.88
2023-04-20T07:23:02.957Z,18.02
2023-04-20T07:25:33.015Z,17.60
2023-04-20T07:28:03.192Z,17.24
2023-04-20T07:30:31.877Z,16.56
2023-04-20T07:32:59.734Z,16.66
2023-04-20T07:35:27.777Z,17.53
2023-04-20T07:37:55.641Z,17.55
2023-04-20T07:40:23.137Z,17.72
2023-04-20T07:42:50.816Z,17.93
2023-04-20T07:45:19.063Z,17.68
2023-04-20T07:47:47.655Z,18.33
2023-04-20T07:50:15.286Z,18.69
2023-04-20T07:52:44.450Z,18.76
2023-04-20T07:55:12.915Z,19.20
2023-04-20T07:57:40.334Z,19.59
2023-04-20T08:00:09.751Z,20.84
2023-04-20T08:02:40.357Z,21.37
2023-04-20T08:05:10.311Z,20.76
2023-04-20T08:07:38.323Z,21.61
2023-04-20T08:10:06.903Z,24.86
2023-04-20T08:12:34.522Z,26.67
2023-04-20T08:15:04.525Z,27.38
2023-04-20T08:17:35.228Z,27.15
2023-04-20T08:20:04.715Z,27.91
2023-04-20T08:22:33.558Z,28.43
2023-04-20T08:25:00.949Z,28.01
2023-04-20T08:27:30.537Z,28.02
2023-04-20T08:29:58.094Z,28.28
2023-04-20T08:32:26.767Z,29.65
2023-04-20T08:34:55.245Z,31.24
2023-04-20T08:37:23.239Z,32.85
2023-04-20T08:39:50.763Z,34.32
2023-04-20T08:42:18.490Z,35.29
2023-04-20T08:44:45.816Z,36.39
2023-04-20T08:47:13.203Z,36.34
2023-04-20T08:49:41.173Z,35.95
2023-04-20T08:52:10.908Z,36.31
2023-04-20T08:54:45.838Z,37.36
2023-04-20T08:57:17.276Z,35.61
2023-04-20T08:59:44.837Z,36.69
2023-04-20T09:02:12.707Z,36.04
2023-04-20T09:04:40.974Z,33.32
2023-04-20T09:07:17.478Z,35.33
2023-04-20T09:09:58.387Z,35.94
2023-04-20T09:12:25.928Z,34.36
2023-04-20T09:14:53.721Z,33.73
2023-04-20T09:17:31.986Z,33.67
2023-04-20T09:20:00.005Z,35.94
2023-04-20T09:22:31.760Z,35.02
2023-04-20T09:24:59.507Z,36.43
2023-04-20T09:27:27.354Z,37.09
2023-04-20T09:30:01.432Z,37.59
2023-04-20T09:32:29.462Z,37.54
2023-04-20T09:34:57.097Z,35.74
2023-04-20T09:37:25.584Z,32.26
2023-04-20T09:39:54.164Z,30.88
2023-04-20T09:42:21.609Z,28.93
2023-04-20T09:44:49.198Z,27.90
2023-04-20T09:47:17.921Z,26.41
2023-04-20T09:49:46.933Z,26.50
2023-04-20T09:52:21.106Z,25.12
2023-04-20T09:54:48.715Z,24.87
2023-04-20T09:57:16.358Z,24.41
2023-04-20T09:59:43.941Z,25.09
2023-04-20T10:02:12.541Z,26.83
2023-04-20T10:04:58.887Z,28.11
2023-04-20T10:07:27.211Z,29.99
2023-04-20T10:10:05.226Z,31.53
2023-04-20T10:12:32.853Z,32.51
2023-04-20T10:15:01.334Z,32.59
2023-04-20T10:17:32.241Z,30.52
2023-04-20T10:19:59.723Z,26.94
2023-04-20T10:22:32.848Z,29.39
2023-04-20T10:25:01.269Z,28.68
2023-04-20T10:27:32.095Z,27.88
2023-04-20T10:30:11.875Z,28.07
2023-04-20T10:32:41.905Z,25.67
2023-04-20T10:35:10.879Z,25.68
2023-04-20T10:37:47.992Z,24.77
2023-04-20T10:40:15.655Z,22.49
2023-04-20T10:42:43.986Z,22.12
2023-04-20T10:45:11.868Z,21.84
2023-04-20T10:47:40.948Z,22.93
2023-04-20T10:50:11.162Z,22.76
2023-04-20T10:52:39.907Z,21.85
2023-04-20T10:55:17.725Z,22.50
2023-04-20T10:57:45.575Z,22.86
2023-04-20T11:00:17.290Z,23.05
2023-04-20T11:02:54.906Z,22.91
2023-04-20T11:05:23.927Z,23.10
2023-04-20T11:07:58.446Z,22.17
2023-04-20T11:10:40.323Z,21.71
2023-04-20T11:13:08.180Z,22.27
2023-04-20T11:15:35.625Z,22.64
2023-04-20T11:18:09.568Z,22.76
2023-04-20T11:20:37.878Z,22.16
2023-04-20T11:23:05.977Z,21.63
2023-04-20T11:25:33.528Z,21.08
2023-04-20T11:28:08.920Z,21.85
2023-04-20T11:30:42.562Z,22.21
2023-04-20T11:33:10.904Z,22.85
2023-04-20T11:35:39.105Z,20.45
2023-04-20T11:38:06.490Z,20.13
2023-04-20T11:40:34.481Z,21.09
2023-04-20T11:43:02.171Z,21.09
2023-04-20T11:45:33.820Z,22.35
2023-04-20T11:48:03.455Z,22.71
2023-04-20T11:50:30.932Z,23.02
2023-04-20T11:52:58.432Z,23.27
2023-04-20T11:55:26.114Z,22.60
2023-04-20T11:57:53.518Z,22.78
2023-04-20T12:00:22.025Z,21.82
2023-04-20T12:02:49.856Z,20.85
2023-04-20T12:05:17.332Z,21.61
2023-04-20T12:07:44.697Z,21.18
2023-04-20T12:10:14.541Z,21.03
2023-04-20T12:12:42.699Z,21.29
2023-04-20T12:15:10.471Z,20.54
2023-04-20T12:17:38.166Z,21.09
2023-04-20T12:20:09.350Z,21.94
2023-04-20T12:22:36.696Z,21.49
2023-04-20T12:25:05.481Z,21.80
2023-04-20T12:27:32.879Z,21.61
2023-04-20T12:30:00.335Z,21.48
2023-04-20T12:32:28.262Z,21.49
2023-04-20T12:34:56.017Z,20.51
2023-04-20T12:37:23.453Z,21.17
2023-04-20T12:39:51.358Z,20.78
2023-04-20T12:42:19.007Z,20.96
2023-04-20T12:44:46.524Z,21.37
2023-04-20T12:47:14.283Z,21.77
2023-04-20T12:49:41.616Z,21.83
2023-04-20T12:52:09.082Z,22.48
2023-04-20T12:54:36.798Z,22.16
2023-04-20T12:57:04.418Z,22.27
2023-04-20T12:59:31.762Z,21.85
2023-04-20T13:01:59.531Z,21.35
2023-04-20T13:04:27.043Z,21.93
2023-04-20T13:06:54.486Z,21.18
2023-04-20T13:09:26.807Z,21.58
2023-04-20T13:11:54.746Z,21.87
2023-04-20T13:14:22.852Z,21.84
2023-04-20T13:16:51.350Z,21.28
2023-04-20T13:19:20.504Z,21.57
2023-04-20T13:21:48.129Z,21.46
2023-04-20T13:24:15.839Z,21.92
2023-04-20T13:26:43.471Z,22.16
2023-04-20T13:29:11.292Z,21.76
2023-04-20T13:31:38.849Z,21.74
2023-04-20T13:34:06.329Z,21.42
2023-04-20T13:36:33.955Z,21.54
2023-04-20T13:39:01.821Z,21.99
2023-04-20T13:41:29.220Z,21.48
2023-04-20T13:43:57.801Z,21.34
2023-04-20T13:46:25.329Z,20.72
2023-04-20T13:48:52.776Z,21.21
2023-04-20T13:51:20.437Z,20.57
2023-04-20T13:53:48.795Z,20.23
2023-04-20T13:56:16.716Z,19.90
2023-04-20T13:58:44.473Z,20.48
2023-04-20T14:01:12.595Z,20.58
2023-04-20T14:03:41.675Z,21.17
2023-04-20T14:06:09.161Z,20.75
2023-04-20T14:08:36.911Z,20.53
2023-04-20T14:11:04.616Z,20.92
2023-04-20T14:13:32.060Z,20.68
2023-04-20T14:15:59.459Z,20.64
2023-04-20T14:18:27.237Z,20.81
2023-04-20T14:20:54.644Z,21.25
2023-04-20T14:23:22.662Z,21.55
2023-04-20T14:25:50.921Z,21.63
2023-04-20T14:28:18.471Z,21.55
2023-04-20T14:30:45.999Z,21.71
2023-04-20T14:33:13.738Z,21.56
2023-04-20T14:35:41.158Z,21.42
2023-04-20T14:38:08.479Z,21.76
2023-04-20T14:40:36.140Z,21.33
2023-04-20T14:43:03.484Z,21.46
2023-04-20T14:45:30.900Z,21.74
2023-04-20T14:47:58.536Z,21.54
2023-04-20T14:50:28.783Z,21.41
2023-04-20T14:52:56.222Z,21.25
2023-04-20T14:55:25.729Z,20.66
2023-04-20T14:57:57.136Z,20.24
2023-04-20T15:00:25.317Z,20.00
2023-04-20T15:02:53.134Z,19.52
2023-04-20T15:05:20.985Z,20.04
2023-04-20T15:07:50.692Z,20.04
2023-04-20T15:10:20.834Z,20.63
2023-04-20T15:12:48.264Z,20.75
2023-04-20T15:15:16.224Z,21.01
2023-04-20T15:17:47.948Z,21.04
2023-04-20T15:20:15.681Z,21.30
2023-04-20T15:22:43.090Z,20.66
2023-04-20T15:25:10.430Z,20.58
2023-04-20T15:27:38.041Z,21.22
2023-04-20T15:30:06.160Z,20.73
2023-04-20T15:32:36.468Z,20.72
2023-04-20T15:35:04.237Z,20.10
2023-04-20T15:37:31.814Z,20.48
2023-04-20T15:39:59.263Z,20.79
2023-04-20T15:42:27.504Z,20.96
2023-04-20T15:44:54.867Z,21.30
2023-04-20T15:47:22.306Z,21.29
2023-04-20T15:49:50.009Z,21.09
2023-04-20T15:52:17.419Z,20.60
2023-04-20T15:54:46.830Z,20.93
2023-04-20T15:57:14.449Z,21.44
2023-04-20T15:59:41.779Z,21.49
2023-04-20T16:02:09.269Z,21.65
2023-04-20T16:04:37.121Z,21.60
2023-04-20T16:07:04.681Z,21.12
2023-04-20T16:09:32.036Z,21.71
2023-04-20T16:11:59.616Z,21.35
2023-04-20T16:14:26.984Z,21.62
2023-04-20T16:16:54.764Z,21.81
2023-04-20T16:19:22.381Z,21.96
2023-04-20T16:21:49.748Z,22.11
2023-04-20T16:24:17.387Z,22.05
2023-04-20T16:26:46.269Z,22.26
2023-04-20T16:29:13.627Z,21.69
2023-04-20T16:31:41.118Z,21.73
2023-04-20T16:34:08.769Z,21.65
2023-04-20T16:36:36.131Z,21.91
2023-04-20T16:39:05.896Z,20.90
2023-04-20T16:41:33.526Z,20.81
2023-04-20T16:44:00.930Z,19.42
2023-04-20T16:46:28.298Z,19.81
2023-04-20T16:48:55.961Z,20.15
2023-04-20T16:51:23.371Z,20.03
2023-04-20T16:53:50.774Z,19.60
2023-04-20T16:56:18.407Z,19.82
2023-04-20T16:58:45.866Z,19.09
2023-04-20T17:01:13.366Z,19.24
2023-04-20T17:03:41.534Z,19.52
2023-04-20T17:06:09.814Z,19.31
2023-04-20T17:08:40.476Z,19.39
2023-04-20T17:11:08.100Z,19.05
2023-04-20T17:13:35.473Z,19.33
2023-04-20T17:16:02.911Z,19.47
2023-04-20T17:18:30.791Z,19.79
2023-04-20T17:20:58.231Z,19.78
2023-04-20T17:23:26.553Z,19.18
2023-04-20T17:25:54.722Z,19.44
2023-04-20T17:28:22.086Z,18.99
2023-04-20T17:30:49.405Z,19.27
2023-04-20T17:33:17.037Z,19.05
2023-04-20T17:35:46.333Z,19.42
2023-04-20T17:38:13.996Z,19.20
2023-04-20T17:40:41.653Z,19.47
2023-04-20T17:43:09.040Z,19.57
2023-04-20T17:45:36.855Z,19.21
2023-04-20T17:48:05.372Z,17.97
2023-04-20T17:50:33.733Z,18.55
2023-04-20T17:53:06.709Z,18.86
2023-04-20T17:55:34.895Z,18.90
2023-04-20T17:58:02.316Z,18.23
2023-04-20T18:00:29.694Z,18.10
2023-04-20T18:02:57.420Z,18.08
2023-04-20T18:05:24.902Z,18.34
2023-04-20T18:07:52.258Z,18.75
2023-04-20T18:10:19.907Z,19.18
2023-04-20T18:12:47.285Z,19.12
2023-04-20T18:15:14.662Z,18.73
2023-04-20T18:17:43.426Z,19.30
2023-04-20T18:20:10.941Z,19.27
2023-04-20T18:22:38.459Z,18.66
2023-04-20T18:25:06.421Z,19.22
2023-04-20T18:27:33.773Z,18.82
2023-04-20T18:30:01.291Z,18.41
2023-04-20T18:32:30.939Z,19.21
2023-04-20T18:34:59.191Z,19.09
2023-04-20T18:37:26.547Z,19.12
2023-04-20T18:39:54.200Z,19.04
2023-04-20T18:42:21.618Z,19.09
2023-04-20T18:44:52.946Z,19.04
2023-04-20T18:47:22.139Z,19.18
2023-04-20T18:49:49.507Z,19.34
2023-04-20T18:52:18.506Z,19.01
2023-04-20T18:54:47.517Z,18.99
2023-04-20T18:57:15.028Z,19.02
2023-04-20T18:59:42.403Z,19.31
2023-04-20T19:02:10.290Z,19.25
2023-04-20T19:04:37.761Z,19.34
2023-04-20T19:07:05.159Z,19.28
2023-04-20T19:09:32.762Z,18.90
2023-04-20T19:12:01.467Z,18.58
2023-04-20T19:14:28.811Z,17.99
2023-04-20T19:16:56.565Z,17.87
2023-04-20T19:19:24.120Z,18.38
2023-04-20T19:21:51.487Z,18.60
2023-04-20T19:24:19.353Z,18.54
2023-04-20T19:26:46.976Z,18.57
2023-04-20T19:29:14.315Z,18.56
2023-04-20T19:31:42.133Z,18.40
2023-04-20T19:34:10.597Z,18.11
2023-04-20T19:36:37.977Z,18.00
2023-04-20T19:39:07.138Z,18.53
2023-04-20T19:41:34.632Z,18.61
2023-04-20T19:44:05.095Z,18.57
2023-04-20T19:46:33.490Z,18.70
2023-04-20T19:49:01.069Z,18.70
2023-04-20T19:51:28.445Z,18.68
2023-04-20T19:53:56.489Z,18.72
2023-04-20T19:56:23.864Z,18.53
2023-04-20T19:58:51.367Z,18.74
2023-04-20T20:01:19.437Z,18.72
2023-04-20T20:03:47.260Z,18.57
2023-04-20T20:06:14.678Z,18.66
2023-04-20T20:08:42.050Z,18.65
2023-04-20T20:11:09.744Z,18.53
2023-04-20T20:13:37.123Z,18.41
2023-04-20T20:16:04.702Z,18.44
2023-04-20T20:18:32.360Z,17.93
2023-04-20T20:20:59.695Z,18.12
2023-04-20T20:23:27.060Z,18.02
2023-04-20T20:25:54.685Z,18.19
2023-04-20T20:28:22.017Z,17.91
2023-04-20T20:30:49.390Z,18.04
2023-04-20T20:33:17.019Z,17.90
2023-04-20T20:35:44.445Z,17.74
2023-04-20T20:38:12.083Z,17.95
2023-04-20T20:40:40.014Z,17.86
2023-04-20T20:43:07.366Z,17.69
2023-04-20T20:45:34.831Z,17.68
2023-04-20T20:48:02.527Z,17.49
2023-04-20T20:50:29.901Z,17.61
2023-04-20T20:52:57.359Z,17.52
2023-04-20T20:55:25.053Z,17.24
2023-04-20T20:57:52.397Z,17.38
2023-04-20T21:00:20.302Z,17.06
2023-04-20T21:02:48.063Z,17.24
2023-04-20T21:05:15.611Z,17.24
2023-04-20T21:07:43.018Z,17.13
2023-04-20T21:10:11.806Z,17.16
2023-04-20T21:12:39.230Z,17.18
2023-04-20T21:15:07.398Z,17.44
2023-04-20T21:17:35.214Z,17.21
2023-04-20T21:20:05.663Z,17.17
2023-04-20T21:22:33.007Z,16.77
2023-04-20T21:25:00.622Z,16.93
2023-04-20T21:27:28.013Z,16.74
2023-04-20T21:29:55.361Z,16.62
2023-04-20T21:32:23.845Z,16.87
2023-04-20T21:34:52.168Z,16.72
2023-04-20T21:37:19.543Z,16.87
2023-04-20T21:39:47.155Z,16.88
2023-04-20T21:42:14.486Z,16.58
2023-04-20T21:44:41.855Z,16.47
2023-04-20T21:47:09.497Z,16.62
2023-04-20T21:49:36.848Z,16.53
2023-04-20T21:52:04.257Z,16.31
2023-04-20T21:54:34.064Z,16.37
2023-04-20T21:57:02.113Z,16.27
2023-04-20T21:59:29.438Z,16.48
2023-04-20T22:01:57.232Z,16.34
2023-04-20T22:04:28.508Z,15.98
2023-04-20T22:06:56.095Z,16.31
2023-04-20T22:09:23.483Z,16.07
2023-04-20T22:11:51.492Z,16.08
2023-04-20T22:14:18.889Z,15.93
2023-04-20T22:16:46.353Z,15.97
2023-04-20T22:19:14.003Z,15.85
2023-04-20T22:21:42.992Z,15.74
2023-04-20T22:24:10.449Z,15.70
2023-04-20T22:26:38.139Z,15.49
2023-04-20T22:29:05.526Z,15.59
2023-04-20T22:31:33.088Z,15.80
2023-04-20T22:34:00.708Z,15.35
2023-04-20T22:36:28.196Z,15.46
2023-04-20T22:38:55.616Z,15.63
2023-04-20T22:41:23.287Z,15.85
2023-04-20T22:43:50.669Z,15.46
2023-04-20T22:46:18.075Z,15.50
2023-04-20T22:48:48.545Z,15.20
2023-04-20T22:51:17.201Z,15.14
2023-04-20T22:53:44.636Z,15.05
2023-04-20T22:56:12.286Z,15.28
2023-04-20T22:58:39.637Z,15.38
2023-04-20T23:01:07.026Z,15.43
2023-04-20T23:03:34.882Z,14.83
2023-04-20T23:06:02.820Z,14.95
2023-04-20T23:08:30.218Z,14.86
2023-04-20T23:10:57.848Z,14.49
2023-04-20T23:13:26.214Z,15.12
2023-04-20T23:15:53.902Z,15.18
2023-04-20T23:18:21.680Z,15.11
2023-04-20T23:20:49.064Z,14.57
2023-04-20T23:23:16.427Z,14.62
2023-04-20T23:25:44.112Z,15.01
2023-04-20T23:28:11.482Z,14.52
2023-04-20T23:30:38.833Z,15.00
2023-04-20T23:33:06.502Z,14.70
2023-04-20T23:35:34.139Z,14.14
2023-04-20T23:38:02.794Z,13.97
2023-04-20T23:40:30.792Z,14.02
2023-04-20T23:42:58.181Z,14.41
2023-04-20T23:45:25.596Z,14.48
2023-04-20T23:47:53.354Z,14.76
2023-04-20T23:50:20.951Z,14.32
2023-04-20T23:52:48.303Z,14.36
2023-04-20T23:55:15.880Z,14.32
2023-04-20T23:57:43.345Z,14.06
